Steam Corners, Ohio
Current Conditions -  °F | °C
As of 5:52 AM on Saturday 22 Nov 2014 (Local Time) from KMFD Reporting Station
Overcast Overcast  
Wind Chill: 20°   Ceiling: 2700
Heat Index: 30°   Visibility: 10mi
Dew Point: 14°   Wind: 14mph
Humidity: 51%   Direction: 170°S
Pressure: 30.24"   Gusts: NA
Location:  40.6648°N, 82.6104°W
Report Text: KMFD 221052Z AUTO 17012KT 10SM BKN027 OVC036 M01/M10 A3024 RMK AO2 SLP258 T10111100
Loading
Personal Weather Stations






























Interactive Weather Map New forecast layout! Learn more

10-Day Weather Forecast

Advertisements
Track Severe Weather on mobile